createdAt,value
2022-09-06T00:00:31.865Z,13.49
2022-09-06T00:03:01.257Z,13.47
2022-09-06T00:05:31.792Z,13.45
2022-09-06T00:08:01.417Z,13.41
2022-09-06T00:10:31.557Z,13.38
2022-09-06T00:13:03.578Z,13.36
2022-09-06T00:15:31.540Z,13.34
2022-09-06T00:18:02.035Z,13.32
2022-09-06T00:20:32.126Z,13.28
2022-09-06T00:23:03.369Z,13.23
2022-09-06T00:25:33.280Z,13.17
2022-09-06T00:28:04.654Z,13.13
2022-09-06T00:30:34.203Z,13.08
2022-09-06T00:33:03.000Z,13.06
2022-09-06T00:35:32.112Z,13.03
2022-09-06T00:38:02.137Z,12.96
2022-09-06T00:40:33.754Z,12.94
2022-09-06T00:43:02.558Z,12.93
2022-09-06T00:45:32.333Z,12.92
2022-09-06T00:48:04.909Z,12.93
2022-09-06T00:50:34.062Z,12.93
2022-09-06T00:53:03.122Z,12.93
2022-09-06T00:55:32.375Z,12.93
2022-09-06T00:58:03.531Z,12.94
2022-09-06T01:00:32.897Z,12.95
2022-09-06T01:03:01.797Z,12.96
2022-09-06T01:05:41.797Z,12.96
2022-09-06T01:08:19.848Z,12.98
2022-09-06T01:11:05.571Z,12.98
2022-09-06T01:13:44.766Z,13.00
2022-09-06T01:16:21.039Z,12.99
2022-09-06T01:19:26.880Z,12.98
2022-09-06T01:22:07.010Z,12.95
2022-09-06T01:24:56.621Z,12.93
2022-09-06T01:28:06.832Z,12.94
2022-09-06T01:30:42.755Z,12.89
2022-09-06T01:33:18.265Z,12.84
2022-09-06T01:35:53.073Z,12.81
2022-09-06T01:38:22.102Z,12.80
2022-09-06T01:40:51.163Z,12.78
2022-09-06T01:43:24.500Z,12.73
2022-09-06T01:46:00.993Z,12.67
2022-09-06T01:48:45.112Z,12.61
2022-09-06T01:51:23.091Z,12.56
2022-09-06T01:54:09.971Z,12.55
2022-09-06T01:56:49.005Z,12.53
2022-09-06T01:59:40.643Z,12.51
2022-09-06T02:02:14.867Z,12.48
2022-09-06T02:04:47.241Z,12.45
2022-09-06T02:07:22.431Z,12.45
2022-09-06T02:09:58.071Z,12.46
2022-09-06T02:12:30.228Z,12.43
2022-09-06T02:15:05.959Z,12.40
2022-09-06T02:17:39.417Z,12.39
2022-09-06T02:20:13.114Z,12.37
2022-09-06T02:22:46.614Z,12.35
2022-09-06T02:25:22.802Z,12.33
2022-09-06T02:27:51.724Z,12.30
2022-09-06T02:30:20.686Z,12.28
2022-09-06T02:32:55.857Z,12.25
2022-09-06T02:35:25.164Z,12.25
2022-09-06T02:37:55.815Z,12.24
2022-09-06T02:40:25.095Z,12.23
2022-09-06T02:42:54.059Z,12.19
2022-09-06T02:45:22.869Z,12.17
2022-09-06T02:47:51.677Z,12.11
2022-09-06T02:50:20.459Z,12.07
2022-09-06T02:53:02.051Z,12.04
2022-09-06T02:55:31.250Z,12.03
2022-09-06T02:58:00.153Z,12.02
2022-09-06T03:00:29.652Z,12.02
2022-09-06T03:02:58.639Z,11.99
2022-09-06T03:05:28.235Z,11.94
2022-09-06T03:07:57.564Z,11.86
2022-09-06T03:10:26.679Z,11.73
2022-09-06T03:12:55.563Z,11.59
2022-09-06T03:15:24.276Z,11.43
2022-09-06T03:17:58.438Z,11.28
2022-09-06T03:20:27.306Z,11.16
2022-09-06T03:22:56.344Z,11.05
2022-09-06T03:25:25.491Z,10.99
2022-09-06T03:27:57.886Z,10.95
2022-09-06T03:30:26.890Z,10.94
2022-09-06T03:32:55.671Z,10.96
2022-09-06T03:35:24.856Z,10.98
2022-09-06T03:37:53.647Z,10.98
2022-09-06T03:40:22.546Z,11.01
2022-09-06T03:42:51.251Z,11.04
2022-09-06T03:45:20.449Z,11.07
2022-09-06T03:47:49.444Z,11.07
2022-09-06T03:50:18.395Z,11.09
2022-09-06T03:52:47.206Z,11.13
2022-09-06T03:55:16.215Z,11.17
2022-09-06T03:57:45.108Z,11.23
2022-09-06T04:00:16.414Z,11.29
2022-09-06T04:02:45.419Z,11.32
2022-09-06T04:05:15.922Z,11.33
2022-09-06T04:07:44.792Z,11.35
2022-09-06T04:10:13.652Z,11.35
2022-09-06T04:12:43.069Z,11.35
2022-09-06T04:15:12.399Z,11.33
2022-09-06T04:17:45.003Z,11.33
2022-09-06T04:20:14.458Z,11.37
2022-09-06T04:22:43.323Z,11.40
2022-09-06T04:25:13.189Z,11.42
2022-09-06T04:27:42.060Z,11.45
2022-09-06T04:30:11.995Z,11.48
2022-09-06T04:32:41.538Z,11.55
2022-09-06T04:35:10.509Z,11.63
2022-09-06T04:37:39.969Z,11.73
2022-09-06T04:40:10.131Z,11.91
2022-09-06T04:42:39.088Z,12.14
2022-09-06T04:45:10.341Z,12.37
2022-09-06T04:47:39.096Z,12.55
2022-09-06T04:50:09.285Z,12.64
2022-09-06T04:52:38.113Z,12.69
2022-09-06T04:55:08.632Z,12.72
2022-09-06T04:57:42.179Z,12.74
2022-09-06T05:00:15.297Z,12.76
2022-09-06T05:02:44.540Z,12.76
2022-09-06T05:05:13.923Z,12.77
2022-09-06T05:07:42.891Z,12.77
2022-09-06T05:10:11.944Z,12.79
2022-09-06T05:12:44.163Z,12.80
2022-09-06T05:15:13.598Z,12.78
2022-09-06T05:17:42.480Z,12.76
2022-09-06T05:20:12.691Z,12.75
2022-09-06T05:22:41.604Z,12.73
2022-09-06T05:25:11.785Z,12.72
2022-09-06T05:27:40.530Z,12.72
2022-09-06T05:30:12.380Z,12.73
2022-09-06T05:32:41.230Z,12.74
2022-09-06T05:35:10.625Z,12.74
2022-09-06T05:37:39.619Z,12.73
2022-09-06T05:40:10.485Z,12.73
2022-09-06T05:42:40.465Z,12.72
2022-09-06T05:45:10.267Z,12.71
2022-09-06T05:47:39.206Z,12.69
2022-09-06T05:50:10.023Z,12.68
2022-09-06T05:52:39.167Z,12.67
2022-09-06T05:55:09.562Z,12.66
2022-09-06T05:57:38.358Z,12.66
2022-09-06T06:00:11.523Z,12.64
2022-09-06T06:02:40.476Z,12.64
2022-09-06T06:05:09.933Z,12.63
2022-09-06T06:07:38.677Z,12.64
2022-09-06T06:10:08.845Z,12.64
2022-09-06T06:12:37.997Z,12.67
2022-09-06T06:15:08.706Z,12.69
2022-09-06T06:17:37.570Z,12.69
2022-09-06T06:20:08.689Z,12.68
2022-09-06T06:22:38.451Z,12.67
2022-09-06T06:25:08.351Z,12.65
2022-09-06T06:27:37.282Z,12.65
2022-09-06T06:30:08.610Z,12.67
2022-09-06T06:32:37.432Z,12.72
2022-09-06T06:35:09.173Z,12.75
2022-09-06T06:37:38.105Z,12.76
2022-09-06T06:40:09.422Z,12.77
2022-09-06T06:42:38.451Z,12.79
2022-09-06T06:45:09.360Z,12.81
2022-09-06T06:47:38.236Z,12.85
2022-09-06T06:50:08.506Z,12.91
2022-09-06T06:52:37.391Z,12.97
2022-09-06T06:55:07.583Z,13.00
2022-09-06T06:57:36.414Z,13.04
2022-09-06T07:00:07.594Z,13.06
2022-09-06T07:02:36.586Z,13.10
2022-09-06T07:07:55.878Z,13.27
2022-09-06T07:13:01.427Z,13.56
2022-09-06T07:15:30.644Z,13.73
2022-09-06T07:17:59.278Z,13.89
2022-09-06T07:20:28.329Z,14.05
2022-09-06T07:25:50.162Z,14.37
2022-09-06T07:28:18.916Z,14.48
2022-09-06T07:30:47.656Z,14.60
2022-09-06T07:33:16.528Z,14.73
2022-09-06T07:35:55.767Z,14.84
2022-09-06T07:38:24.779Z,14.95
2022-09-06T07:40:58.029Z,15.05
2022-09-06T07:43:28.215Z,15.14
2022-09-06T07:46:04.717Z,15.22
2022-09-06T07:48:35.955Z,15.30
2022-09-06T07:51:07.571Z,15.35
2022-09-06T07:53:37.952Z,15.34
2022-09-06T07:56:08.975Z,15.33
2022-09-06T07:58:39.302Z,15.33
2022-09-06T08:01:32.325Z,15.31
2022-09-06T08:04:03.282Z,15.29
2022-09-06T08:09:23.439Z,15.32
2022-09-06T08:11:52.581Z,15.39
2022-09-06T08:14:21.431Z,15.51
2022-09-06T08:16:50.514Z,15.66
2022-09-06T08:19:19.583Z,15.84
2022-09-06T08:21:49.121Z,16.05
2022-09-06T08:24:17.984Z,16.25
2022-09-06T08:26:46.862Z,16.51
2022-09-06T08:29:15.862Z,16.75
2022-09-06T08:31:46.659Z,17.06
2022-09-06T08:34:15.824Z,17.32
2022-09-06T08:36:46.001Z,17.45
2022-09-06T08:39:16.179Z,17.52
2022-09-06T08:41:51.998Z,17.64
2022-09-06T08:47:14.615Z,18.25
2022-09-06T08:49:45.569Z,18.54
2022-09-06T08:52:31.377Z,18.69
2022-09-06T08:55:12.860Z,18.78
2022-09-06T08:58:01.316Z,19.01
2022-09-06T09:00:31.625Z,19.35
2022-09-06T09:03:07.519Z,19.59
2022-09-06T09:05:38.332Z,19.84
2022-09-06T09:08:20.027Z,20.11
2022-09-06T09:10:53.914Z,20.40
2022-09-06T09:13:30.622Z,20.71
2022-09-06T09:15:59.724Z,20.95
2022-09-06T09:18:33.436Z,21.10
2022-09-06T09:21:02.659Z,21.29
2022-09-06T09:23:31.895Z,21.54
2022-09-06T09:26:04.663Z,21.77
2022-09-06T09:28:35.379Z,21.92
2022-09-06T09:31:04.750Z,22.04
2022-09-06T09:33:38.408Z,22.10
2022-09-06T09:36:07.505Z,22.15
2022-09-06T09:38:42.606Z,22.06
2022-09-06T09:41:24.064Z,22.04
2022-09-06T09:44:04.220Z,22.07
2022-09-06T09:46:35.289Z,22.00
2022-09-06T09:49:07.375Z,22.05
2022-09-06T09:51:37.837Z,22.05
2022-09-06T09:54:08.401Z,22.12
2022-09-06T09:56:49.808Z,22.23
2022-09-06T09:59:27.822Z,22.26
2022-09-06T10:01:59.457Z,22.28
2022-09-06T10:04:46.687Z,22.34
2022-09-06T10:07:18.457Z,22.32
2022-09-06T10:09:49.624Z,22.28
2022-09-06T10:12:28.357Z,22.21
2022-09-06T10:14:57.652Z,22.09
2022-09-06T10:17:37.279Z,22.02
2022-09-06T10:20:10.164Z,22.04
2022-09-06T10:22:51.440Z,22.17
2022-09-06T10:25:38.464Z,22.30
2022-09-06T10:28:28.110Z,22.43
2022-09-06T10:31:08.886Z,22.56
2022-09-06T10:33:50.500Z,22.63
2022-09-06T10:36:26.595Z,22.64
2022-09-06T10:39:03.481Z,22.66
2022-09-06T10:41:52.552Z,22.71
2022-09-06T10:44:38.168Z,22.79
2022-09-06T10:47:11.695Z,22.82
2022-09-06T10:49:44.043Z,22.86
2022-09-06T10:52:18.940Z,22.98
2022-09-06T10:54:48.215Z,23.15
2022-09-06T11:00:13.921Z,23.54
2022-09-06T11:05:44.083Z,23.70
2022-09-06T11:11:15.645Z,23.58
2022-09-06T11:13:44.362Z,23.52
2022-09-06T11:16:19.924Z,23.45
2022-09-06T11:18:55.265Z,23.44
2022-09-06T11:22:01.285Z,23.33
2022-09-06T11:24:43.155Z,23.05
2022-09-06T11:27:15.270Z,22.87
2022-09-06T11:29:47.662Z,22.77
2022-09-06T11:32:34.139Z,22.72
2022-09-06T11:35:09.363Z,22.66
2022-09-06T11:37:42.327Z,22.56
2022-09-06T11:43:12.308Z,22.34
2022-09-06T11:45:45.023Z,22.18
2022-09-06T11:48:36.805Z,22.07
2022-09-06T11:51:10.229Z,21.97
2022-09-06T11:54:22.409Z,21.92
2022-09-06T11:56:59.455Z,21.94
2022-09-06T11:59:41.361Z,21.97
2022-09-06T12:02:28.176Z,22.00
2022-09-06T12:05:25.912Z,22.04
2022-09-06T12:08:33.650Z,22.08
2022-09-06T12:11:30.093Z,22.07
2022-09-06T12:14:03.228Z,22.10
2022-09-06T12:17:22.506Z,22.11
2022-09-06T12:19:52.644Z,22.14
2022-09-06T12:23:03.233Z,22.17
2022-09-06T12:25:55.827Z,22.19
2022-09-06T12:28:34.127Z,22.22
2022-09-06T12:31:24.504Z,22.21
2022-09-06T12:33:54.447Z,22.23
2022-09-06T12:36:29.866Z,22.29
2022-09-06T12:39:01.016Z,22.39
2022-09-06T12:41:32.258Z,22.46
2022-09-06T12:44:03.778Z,22.54
2022-09-06T12:46:34.029Z,22.60
2022-09-06T12:49:06.121Z,22.66
2022-09-06T12:51:35.504Z,22.73
2022-09-06T12:54:16.891Z,22.74
2022-09-06T12:56:45.865Z,22.79
2022-09-06T12:59:17.064Z,22.87
2022-09-06T13:01:52.934Z,22.92
2022-09-06T13:04:31.676Z,22.95
2022-09-06T13:07:03.755Z,22.90
2022-09-06T13:09:33.604Z,22.83
2022-09-06T13:12:07.301Z,22.74
2022-09-06T13:14:36.472Z,22.58
2022-09-06T13:17:05.624Z,22.48
2022-09-06T13:19:36.884Z,22.39
2022-09-06T13:22:10.317Z,22.35
2022-09-06T13:24:47.431Z,22.32
2022-09-06T13:27:32.716Z,22.25
2022-09-06T13:30:06.135Z,22.12
2022-09-06T13:32:36.495Z,22.09
2022-09-06T13:35:06.939Z,22.08
2022-09-06T13:37:38.939Z,22.08
2022-09-06T13:40:59.955Z,22.08
2022-09-06T13:43:29.196Z,22.02
2022-09-06T13:46:06.520Z,21.96
2022-09-06T13:48:35.751Z,21.93
2022-09-06T13:51:07.215Z,21.87
2022-09-06T13:53:36.332Z,21.83
2022-09-06T13:56:07.986Z,21.75
2022-09-06T13:58:36.761Z,21.68
2022-09-06T14:01:08.023Z,21.62
2022-09-06T14:03:40.167Z,21.60
2022-09-06T14:06:09.786Z,21.60
2022-09-06T14:09:03.260Z,21.59
2022-09-06T14:11:28.228Z,21.56
2022-09-06T14:13:56.955Z,21.54
2022-09-06T14:16:25.740Z,21.49
2022-09-06T14:18:54.320Z,21.46
2022-09-06T14:21:23.168Z,21.44
2022-09-06T14:23:52.783Z,21.44
2022-09-06T14:26:22.594Z,21.42
2022-09-06T14:28:51.804Z,21.41
2022-09-06T14:31:22.699Z,21.40
2022-09-06T14:33:51.739Z,21.39
2022-09-06T14:36:22.144Z,21.39
2022-09-06T14:38:51.085Z,21.38
2022-09-06T14:41:20.487Z,21.39
2022-09-06T14:43:51.567Z,21.41
2022-09-06T14:46:22.574Z,21.41
2022-09-06T14:48:57.996Z,21.42
2022-09-06T14:51:26.963Z,21.39
2022-09-06T14:53:58.291Z,21.38
2022-09-06T14:56:27.287Z,21.37
2022-09-06T14:58:57.299Z,21.37
2022-09-06T15:01:28.313Z,21.38
2022-09-06T15:03:59.152Z,21.40
2022-09-06T15:06:29.288Z,21.44
2022-09-06T15:08:59.511Z,21.48
2022-09-06T15:11:29.856Z,21.53
2022-09-06T15:13:58.878Z,21.58
2022-09-06T15:16:27.791Z,21.60
2022-09-06T15:18:56.418Z,21.61
2022-09-06T15:21:26.072Z,21.62
2022-09-06T15:23:56.965Z,21.61
2022-09-06T15:26:25.830Z,21.60
2022-09-06T15:28:59.546Z,21.57
2022-09-06T15:31:33.583Z,21.53
2022-09-06T15:34:17.929Z,21.47
2022-09-06T15:36:46.819Z,21.44
2022-09-06T15:39:25.005Z,21.38
2022-09-06T15:41:53.835Z,21.31
2022-09-06T15:44:22.465Z,21.29
2022-09-06T15:46:54.424Z,21.23
2022-09-06T15:49:28.409Z,21.19
2022-09-06T15:52:00.242Z,21.13
2022-09-06T15:54:50.801Z,21.08
2022-09-06T15:57:22.004Z,21.01
2022-09-06T15:59:50.925Z,20.96
2022-09-06T16:02:19.626Z,20.90
2022-09-06T16:04:48.447Z,20.85
2022-09-06T16:07:19.593Z,20.78
2022-09-06T16:09:50.077Z,20.72
2022-09-06T16:12:18.721Z,20.66
2022-09-06T16:14:48.575Z,20.61
2022-09-06T16:17:17.350Z,20.55
2022-09-06T16:19:46.041Z,20.50
2022-09-06T16:22:14.692Z,20.44
2022-09-06T16:24:43.343Z,20.39
2022-09-06T16:27:11.970Z,20.35
2022-09-06T16:29:41.287Z,20.31
2022-09-06T16:32:09.985Z,20.26
2022-09-06T16:34:39.191Z,20.21
2022-09-06T16:37:07.993Z,20.14
2022-09-06T16:39:37.028Z,20.07
2022-09-06T16:42:06.028Z,19.99
2022-09-06T16:44:34.681Z,19.92
2022-09-06T16:47:04.591Z,19.83
2022-09-06T16:49:33.242Z,19.77
2022-09-06T16:52:02.356Z,19.71
2022-09-06T16:54:31.224Z,19.65
2022-09-06T16:57:01.185Z,19.60
2022-09-06T16:59:29.863Z,19.54
2022-09-06T17:01:58.620Z,19.49
2022-09-06T17:04:27.483Z,19.44
2022-09-06T17:06:56.292Z,19.37
2022-09-06T17:09:25.186Z,19.30
2022-09-06T17:11:54.594Z,19.23
2022-09-06T17:14:23.214Z,19.16
2022-09-06T17:17:04.381Z,19.08
2022-09-06T17:19:36.430Z,19.00
2022-09-06T17:22:06.053Z,18.90
2022-09-06T17:24:36.319Z,18.78
2022-09-06T17:27:06.623Z,18.67
2022-09-06T17:29:35.672Z,18.56
2022-09-06T17:32:09.414Z,18.45
2022-09-06T17:34:39.399Z,18.35
2022-09-06T17:37:08.407Z,18.26
2022-09-06T17:39:37.908Z,18.18
2022-09-06T17:42:08.126Z,18.11
2022-09-06T17:44:37.469Z,18.03
2022-09-06T17:47:14.553Z,17.94
2022-09-06T17:49:43.718Z,17.84
2022-09-06T17:52:13.350Z,17.74
2022-09-06T17:54:43.445Z,17.62
2022-09-06T17:57:12.498Z,17.47
2022-09-06T17:59:41.461Z,17.37
2022-09-06T18:02:10.555Z,17.29
2022-09-06T18:04:39.723Z,17.23
2022-09-06T18:07:08.510Z,17.16
2022-09-06T18:09:37.919Z,17.09
2022-09-06T18:12:08.018Z,17.02
2022-09-06T18:14:37.337Z,16.94
2022-09-06T18:17:08.242Z,16.88
2022-09-06T18:19:38.144Z,16.85
2022-09-06T18:22:08.268Z,16.81
2022-09-06T18:24:37.912Z,16.76
2022-09-06T18:27:06.992Z,16.70
2022-09-06T18:29:40.025Z,16.58
2022-09-06T18:32:09.696Z,16.47
2022-09-06T18:34:39.134Z,16.38
2022-09-06T18:37:08.802Z,16.32
2022-09-06T18:39:42.113Z,16.25
2022-09-06T18:42:12.977Z,16.18
2022-09-06T18:44:44.106Z,16.13
2022-09-06T18:47:14.290Z,16.08
2022-09-06T18:49:44.592Z,16.05
2022-09-06T18:52:15.283Z,16.01
2022-09-06T18:54:45.801Z,15.98
2022-09-06T18:57:16.773Z,15.94
2022-09-06T18:59:49.027Z,15.91
2022-09-06T19:02:22.940Z,15.88
2022-09-06T19:04:55.497Z,15.85
2022-09-06T19:07:28.546Z,15.79
2022-09-06T19:10:00.820Z,15.74
2022-09-06T19:12:31.917Z,15.64
2022-09-06T19:15:05.081Z,15.58
2022-09-06T19:17:40.752Z,15.51
2022-09-06T19:20:13.028Z,15.45
2022-09-06T19:22:43.888Z,15.42
2022-09-06T19:25:17.315Z,15.40
2022-09-06T19:27:49.687Z,15.37
2022-09-06T19:30:23.412Z,15.33
2022-09-06T19:32:54.111Z,15.27
2022-09-06T19:35:29.841Z,15.20
2022-09-06T19:38:03.621Z,15.13
2022-09-06T19:40:35.425Z,15.06
2022-09-06T19:43:10.127Z,15.03
2022-09-06T19:45:43.523Z,15.02
2022-09-06T19:48:18.573Z,15.01
2022-09-06T19:50:48.680Z,14.98
2022-09-06T19:53:27.479Z,14.93
2022-09-06T19:55:58.413Z,14.89
2022-09-06T19:58:29.171Z,14.87
2022-09-06T20:00:59.324Z,14.86
2022-09-06T20:03:40.738Z,14.85
2022-09-06T20:06:14.135Z,14.81
2022-09-06T20:08:44.061Z,14.75
2022-09-06T20:11:13.262Z,14.70
2022-09-06T20:13:43.312Z,14.67
2022-09-06T20:16:13.061Z,14.63
2022-09-06T20:18:42.427Z,14.60
2022-09-06T20:21:13.283Z,14.63
2022-09-06T20:23:42.006Z,14.66
2022-09-06T20:26:12.893Z,14.69
2022-09-06T20:28:43.499Z,14.71
2022-09-06T20:31:14.900Z,14.73
2022-09-06T20:33:48.714Z,14.74
2022-09-06T20:36:20.709Z,14.73
2022-09-06T20:38:50.328Z,14.70
2022-09-06T20:41:20.856Z,14.67
2022-09-06T20:43:52.597Z,14.61
2022-09-06T20:46:24.081Z,14.58
2022-09-06T20:48:55.011Z,14.58
2022-09-06T20:51:24.706Z,14.57
2022-09-06T20:53:54.690Z,14.57
2022-09-06T20:56:30.233Z,14.56
2022-09-06T20:59:02.017Z,14.54
2022-09-06T21:01:34.135Z,14.52
2022-09-06T21:04:02.958Z,14.51
2022-09-06T21:06:33.943Z,14.49
2022-09-06T21:09:03.319Z,14.48
2022-09-06T21:11:32.588Z,14.50
2022-09-06T21:14:01.183Z,14.50
2022-09-06T21:16:30.571Z,14.51
2022-09-06T21:19:02.817Z,14.51
2022-09-06T21:21:32.007Z,14.49
2022-09-06T21:24:02.532Z,14.48
2022-09-06T21:26:31.613Z,14.47
2022-09-06T21:29:00.949Z,14.45
2022-09-06T21:31:31.151Z,14.41
2022-09-06T21:34:02.935Z,14.37
2022-09-06T21:36:34.188Z,14.33
2022-09-06T21:39:06.270Z,14.28
2022-09-06T21:41:34.418Z,14.24
2022-09-06T21:44:04.600Z,14.19
2022-09-06T21:46:35.805Z,14.15
2022-09-06T21:49:06.864Z,14.11
2022-09-06T21:51:36.697Z,14.09
2022-09-06T21:54:06.592Z,14.09
2022-09-06T21:56:37.037Z,14.11
2022-09-06T21:59:06.367Z,14.12
2022-09-06T22:01:36.943Z,14.11
2022-09-06T22:04:06.697Z,14.09
2022-09-06T22:06:37.191Z,14.06
2022-09-06T22:09:10.255Z,14.02
2022-09-06T22:11:40.536Z,13.96
2022-09-06T22:14:11.439Z,13.93
2022-09-06T22:16:41.030Z,13.94
2022-09-06T22:19:10.755Z,13.93
2022-09-06T22:21:39.651Z,13.92
2022-09-06T22:24:09.797Z,13.91
2022-09-06T22:26:40.147Z,13.90
2022-09-06T22:29:10.847Z,13.89
2022-09-06T22:31:40.564Z,13.87
2022-09-06T22:34:10.201Z,13.86
2022-09-06T22:36:38.960Z,13.83
2022-09-06T22:39:08.911Z,13.82
2022-09-06T22:41:37.974Z,13.82
2022-09-06T22:44:07.061Z,13.81
2022-09-06T22:46:36.988Z,13.79
2022-09-06T22:49:06.280Z,13.79
2022-09-06T22:51:34.970Z,13.76
2022-09-06T22:54:04.384Z,13.73
2022-09-06T22:56:33.318Z,13.71
2022-09-06T22:59:02.484Z,13.70
2022-09-06T23:01:32.265Z,13.71
2022-09-06T23:04:01.578Z,13.71
2022-09-06T23:06:30.216Z,13.68
2022-09-06T23:08:59.356Z,13.63
2022-09-06T23:11:28.307Z,13.58
2022-09-06T23:13:57.803Z,13.52
2022-09-06T23:16:27.794Z,13.49
2022-09-06T23:18:56.467Z,13.46
2022-09-06T23:21:26.116Z,13.42
2022-09-06T23:23:56.742Z,13.41
2022-09-06T23:26:28.093Z,13.37
2022-09-06T23:28:57.230Z,13.32
2022-09-06T23:31:28.728Z,13.26
2022-09-06T23:33:59.124Z,13.24
2022-09-06T23:36:28.286Z,13.24
2022-09-06T23:38:57.358Z,13.26
2022-09-06T23:41:26.046Z,13.28
2022-09-06T23:43:54.937Z,13.28
2022-09-06T23:46:23.671Z,13.30
2022-09-06T23:48:52.536Z,13.32
2022-09-06T23:51:21.579Z,13.34
2022-09-06T23:53:50.248Z,13.37
2022-09-06T23:56:20.211Z,13.39
2022-09-06T23:58:48.985Z,13.39
